createdAt,value
2022-09-09T00:02:43.382Z,52.37
2022-09-09T00:06:30.622Z,52.18
2022-09-09T00:09:39.488Z,51.77
2022-09-09T00:13:04.531Z,52.05
2022-09-09T00:16:27.231Z,51.99
2022-09-09T00:19:50.709Z,52.00
2022-09-09T00:23:00.429Z,52.25
2022-09-09T00:26:26.575Z,52.51
2022-09-09T00:29:51.529Z,52.52
2022-09-09T00:32:57.108Z,52.48
2022-09-09T00:36:16.061Z,52.53
2022-09-09T00:39:24.606Z,52.47
2022-09-09T00:42:44.329Z,52.56
2022-09-09T00:46:18.727Z,53.12
2022-09-09T00:49:59.306Z,53.39
2022-09-09T00:53:30.609Z,53.35
2022-09-09T00:56:38.810Z,53.20
2022-09-09T01:00:11.422Z,53.18
2022-09-09T01:03:53.764Z,53.18
2022-09-09T01:07:00.199Z,53.08
2022-09-09T01:10:18.248Z,53.36
2022-09-09T01:13:29.043Z,53.33
2022-09-09T01:16:37.667Z,53.66
2022-09-09T01:20:21.173Z,53.73
2022-09-09T01:23:54.754Z,53.74
2022-09-09T01:27:07.392Z,53.70
2022-09-09T01:30:13.202Z,53.73
2022-09-09T01:33:18.983Z,53.60
2022-09-09T01:36:37.727Z,53.57
2022-09-09T01:39:43.537Z,53.69
2022-09-09T01:42:49.913Z,53.92
2022-09-09T01:45:55.828Z,53.80
2022-09-09T01:49:02.845Z,53.83
2022-09-09T01:52:11.668Z,54.14
2022-09-09T01:55:18.100Z,54.30
2022-09-09T01:58:52.168Z,55.08
2022-09-09T02:02:21.363Z,55.81
2022-09-09T02:05:53.258Z,55.79
2022-09-09T02:09:04.923Z,56.16
2022-09-09T02:12:28.309Z,56.18
2022-09-09T02:15:53.103Z,56.02
2022-09-09T02:19:06.736Z,55.92
2022-09-09T02:22:15.522Z,56.16
2022-09-09T02:25:24.063Z,56.83
2022-09-09T02:28:31.827Z,57.63
2022-09-09T02:31:38.847Z,57.37
2022-09-09T02:34:47.903Z,57.53
2022-09-09T02:37:55.527Z,58.02
2022-09-09T02:41:01.313Z,57.91
2022-09-09T02:44:00.242Z,57.56
2022-09-09T02:47:23.227Z,56.99
2022-09-09T02:50:35.998Z,56.87
2022-09-09T02:53:46.679Z,57.32
2022-09-09T02:56:58.309Z,56.80
2022-09-09T03:00:06.769Z,56.62
2022-09-09T03:03:12.331Z,56.76
2022-09-09T03:06:21.135Z,56.30
2022-09-09T03:09:27.919Z,55.83
2022-09-09T03:12:34.328Z,56.12
2022-09-09T03:15:40.753Z,56.34
2022-09-09T03:18:47.610Z,57.23
2022-09-09T03:21:53.297Z,57.24
2022-09-09T03:25:02.016Z,57.03
2022-09-09T03:28:01.889Z,57.31
2022-09-09T03:31:08.258Z,57.37
2022-09-09T03:34:14.673Z,57.30
2022-09-09T03:37:19.723Z,56.92
2022-09-09T03:40:20.638Z,56.51
2022-09-09T03:43:27.599Z,56.50
2022-09-09T03:46:37.553Z,57.04
2022-09-09T03:49:44.122Z,57.55
2022-09-09T03:52:56.491Z,57.52
2022-09-09T03:56:07.802Z,57.69
2022-09-09T03:59:13.785Z,57.64
2022-09-09T04:02:19.453Z,57.64
2022-09-09T04:05:25.961Z,57.64
2022-09-09T04:08:33.436Z,57.72
2022-09-09T04:11:33.683Z,57.76
2022-09-09T04:14:40.953Z,57.50
2022-09-09T04:17:47.130Z,57.60
2022-09-09T04:20:53.187Z,57.77
2022-09-09T04:23:59.321Z,57.89
2022-09-09T04:27:05.441Z,57.46
2022-09-09T04:30:11.912Z,57.73
2022-09-09T04:33:17.947Z,57.42
2022-09-09T04:36:24.025Z,57.11
2022-09-09T04:39:31.270Z,56.99
2022-09-09T04:42:37.896Z,56.74
2022-09-09T04:45:45.581Z,56.44
2022-09-09T04:48:54.334Z,56.77
2022-09-09T04:52:02.333Z,56.41
2022-09-09T04:55:09.652Z,56.17
2022-09-09T04:58:21.701Z,56.06
2022-09-09T05:01:36.311Z,55.81
2022-09-09T05:04:44.190Z,54.99
2022-09-09T05:07:49.789Z,55.10
2022-09-09T05:10:58.257Z,54.42
2022-09-09T05:14:06.086Z,53.84
2022-09-09T05:17:11.855Z,52.79
2022-09-09T05:20:18.550Z,52.01
2022-09-09T05:23:26.264Z,50.50
2022-09-09T05:26:28.021Z,50.00
2022-09-09T05:29:20.948Z,49.30
2022-09-09T05:32:27.384Z,48.73
2022-09-09T05:35:33.108Z,48.14
2022-09-09T05:38:40.938Z,47.45
2022-09-09T05:41:46.195Z,47.32
2022-09-09T05:44:50.619Z,46.62
2022-09-09T05:47:40.216Z,46.01
2022-09-09T05:50:32.850Z,45.77
2022-09-09T05:53:18.739Z,45.58
2022-09-09T05:56:18.622Z,45.45
2022-09-09T05:59:14.103Z,45.00
2022-09-09T06:02:21.344Z,44.82
2022-09-09T06:05:30.595Z,44.67
2022-09-09T06:08:35.953Z,44.31
2022-09-09T06:11:44.845Z,43.85
2022-09-09T06:14:51.780Z,43.88
2022-09-09T06:18:01.271Z,43.58
2022-09-09T06:24:47.746Z,43.10
2022-09-09T06:27:56.763Z,43.17
2022-09-09T06:31:05.417Z,42.68
2022-09-09T06:34:14.095Z,42.13
2022-09-09T06:37:24.460Z,42.44
2022-09-09T06:40:32.968Z,42.49
2022-09-09T06:43:43.122Z,42.05
2022-09-09T06:46:48.131Z,41.55
2022-09-09T06:49:53.042Z,41.31
2022-09-09T06:53:02.560Z,40.97
2022-09-09T06:56:11.324Z,40.65
2022-09-09T06:59:20.676Z,40.69
2022-09-09T07:02:27.650Z,40.38
2022-09-09T07:05:34.015Z,40.40
2022-09-09T07:08:40.918Z,40.12
2022-09-09T07:11:51.539Z,39.98
2022-09-09T07:14:58.666Z,39.44
2022-09-09T07:18:08.750Z,39.41
2022-09-09T07:21:15.938Z,39.24
2022-09-09T07:24:24.267Z,38.80
2022-09-09T07:27:33.504Z,38.56
2022-09-09T07:30:46.210Z,38.42
2022-09-09T07:33:55.859Z,38.32
2022-09-09T07:36:57.787Z,37.83
2022-09-09T07:39:44.524Z,37.67
2022-09-09T07:42:36.680Z,37.62
2022-09-09T07:45:43.448Z,38.32
2022-09-09T07:48:48.979Z,38.95
2022-09-09T07:52:01.933Z,38.63
2022-09-09T07:55:11.478Z,37.99
2022-09-09T07:58:17.228Z,37.25
2022-09-09T08:01:28.197Z,36.91
2022-09-09T08:04:29.204Z,37.22
2022-09-09T08:07:36.828Z,36.90
2022-09-09T08:10:43.348Z,37.09
2022-09-09T08:13:53.983Z,37.08
2022-09-09T08:17:05.259Z,36.55
2022-09-09T08:20:13.329Z,36.02
2022-09-09T08:23:19.565Z,35.34
2022-09-09T08:26:33.057Z,35.38
2022-09-09T08:29:38.177Z,34.69
2022-09-09T08:32:45.947Z,34.68
2022-09-09T08:35:51.510Z,34.53
2022-09-09T08:38:59.416Z,33.75
2022-09-09T08:42:54.477Z,34.29
2022-09-09T08:46:33.582Z,34.64
2022-09-09T08:50:06.332Z,34.49
2022-09-09T08:53:24.684Z,34.56
2022-09-09T08:56:37.773Z,34.77
2022-09-09T08:59:47.130Z,34.59
2022-09-09T09:03:31.954Z,34.93
2022-09-09T09:07:09.099Z,34.47
2022-09-09T09:10:42.237Z,34.08
2022-09-09T09:13:57.977Z,34.03
2022-09-09T09:17:17.468Z,33.76
2022-09-09T09:20:30.358Z,33.72
2022-09-09T09:23:41.387Z,33.88
2022-09-09T09:26:49.565Z,34.07
2022-09-09T09:30:23.870Z,33.94
2022-09-09T09:33:15.178Z,33.80
2022-09-09T09:36:23.056Z,34.07
2022-09-09T09:43:16.494Z,32.98
2022-09-09T09:46:30.861Z,32.77
2022-09-09T09:49:37.704Z,32.48
2022-09-09T09:52:44.878Z,32.08
2022-09-09T09:55:49.928Z,32.16
2022-09-09T09:59:13.310Z,31.68
2022-09-09T10:02:37.381Z,32.12
2022-09-09T10:05:46.695Z,31.04
2022-09-09T10:08:57.144Z,30.54
2022-09-09T10:12:23.334Z,30.30
2022-09-09T10:15:31.480Z,30.42
2022-09-09T10:18:56.047Z,30.03
2022-09-09T10:22:11.259Z,29.84
2022-09-09T10:25:40.910Z,30.18
2022-09-09T10:29:07.800Z,29.93
2022-09-09T10:33:01.108Z,30.26
2022-09-09T10:36:19.296Z,29.72
2022-09-09T10:39:49.182Z,29.59
2022-09-09T10:42:54.985Z,29.70
2022-09-09T10:46:06.477Z,29.63
2022-09-09T10:49:31.649Z,29.58
2022-09-09T10:53:06.962Z,29.59
2022-09-09T10:56:16.557Z,29.65
2022-09-09T10:59:25.302Z,29.84
2022-09-09T11:02:23.656Z,29.25
2022-09-09T11:05:41.328Z,28.99
2022-09-09T11:08:36.669Z,28.74
2022-09-09T11:11:47.226Z,28.72
2022-09-09T11:15:18.885Z,28.83
2022-09-09T11:18:37.330Z,28.97
2022-09-09T11:21:49.712Z,28.87
2022-09-09T11:25:02.596Z,29.19
2022-09-09T11:28:37.256Z,29.14
2022-09-09T11:31:55.423Z,28.95
2022-09-09T11:35:09.886Z,29.38
2022-09-09T11:38:40.571Z,29.50
2022-09-09T11:41:53.133Z,29.92
2022-09-09T11:45:03.001Z,29.69
2022-09-09T11:48:10.674Z,29.48
2022-09-09T11:51:26.006Z,29.74
2022-09-09T11:54:49.391Z,29.98
2022-09-09T11:57:55.291Z,30.20
2022-09-09T12:01:02.829Z,30.01
2022-09-09T12:04:28.066Z,29.75
2022-09-09T12:07:53.015Z,29.73
2022-09-09T12:11:03.189Z,29.92
2022-09-09T12:14:11.491Z,29.74
2022-09-09T12:17:38.180Z,29.48
2022-09-09T12:20:54.570Z,29.14
2022-09-09T12:24:10.225Z,29.11
2022-09-09T12:27:40.503Z,28.91
2022-09-09T12:30:56.068Z,28.68
2022-09-09T12:34:01.688Z,29.21
2022-09-09T12:37:11.414Z,29.33
2022-09-09T12:40:20.798Z,28.63
2022-09-09T12:43:37.205Z,28.74
2022-09-09T12:46:54.549Z,28.93
2022-09-09T12:49:59.007Z,29.64
2022-09-09T12:53:06.474Z,29.82
2022-09-09T12:56:24.094Z,29.53
2022-09-09T12:59:41.626Z,29.21
2022-09-09T13:02:48.172Z,29.40
2022-09-09T13:05:54.218Z,29.24
2022-09-09T13:08:59.555Z,29.25
2022-09-09T13:12:08.485Z,29.44
2022-09-09T13:15:15.178Z,29.25
2022-09-09T13:18:24.815Z,29.25
2022-09-09T13:21:30.934Z,29.29
2022-09-09T13:24:51.591Z,29.26
2022-09-09T13:28:00.361Z,29.42
2022-09-09T13:31:23.926Z,29.82
2022-09-09T13:34:43.047Z,30.07
2022-09-09T13:37:53.684Z,30.50
2022-09-09T13:41:14.937Z,30.40
2022-09-09T13:44:21.356Z,30.06
2022-09-09T13:47:34.910Z,29.89
2022-09-09T13:50:44.792Z,29.88
2022-09-09T13:53:49.881Z,29.89
2022-09-09T13:56:57.869Z,29.97
2022-09-09T14:00:05.476Z,30.18
2022-09-09T14:03:10.717Z,30.08
2022-09-09T14:06:09.231Z,30.37
2022-09-09T14:09:14.546Z,30.49
2022-09-09T14:12:19.508Z,30.62
2022-09-09T14:15:28.244Z,30.27
2022-09-09T14:18:33.782Z,30.43
2022-09-09T14:21:40.561Z,30.50
2022-09-09T14:24:45.267Z,30.71
2022-09-09T14:27:50.735Z,30.46
2022-09-09T14:30:56.574Z,30.66
2022-09-09T14:34:02.829Z,30.58
2022-09-09T14:37:03.061Z,30.55
2022-09-09T14:40:08.449Z,30.67
2022-09-09T14:43:14.674Z,30.53
2022-09-09T14:46:26.445Z,30.37
2022-09-09T14:49:32.166Z,30.22
2022-09-09T14:52:37.247Z,30.02
2022-09-09T14:55:42.966Z,29.97
2022-09-09T14:58:48.676Z,30.19
2022-09-09T15:01:54.024Z,29.62
2022-09-09T15:05:00.163Z,29.23
2022-09-09T15:08:06.719Z,29.21
2022-09-09T15:11:18.575Z,29.35
2022-09-09T15:14:26.017Z,29.28
2022-09-09T15:17:33.263Z,29.39
2022-09-09T15:20:40.391Z,29.35
2022-09-09T15:23:47.428Z,29.56
2022-09-09T15:26:53.638Z,29.63
2022-09-09T15:29:59.579Z,29.67
2022-09-09T15:33:09.640Z,29.80
2022-09-09T15:36:13.278Z,30.01
2022-09-09T15:39:23.262Z,30.02
2022-09-09T15:42:28.858Z,30.12
2022-09-09T15:45:34.916Z,30.20
2022-09-09T15:48:47.315Z,30.26
2022-09-09T15:51:54.485Z,30.39
2022-09-09T15:54:59.923Z,30.69
2022-09-09T15:58:05.768Z,30.83
2022-09-09T16:01:12.752Z,30.83
2022-09-09T16:04:18.101Z,30.96
2022-09-09T16:07:23.993Z,31.00
2022-09-09T16:10:30.318Z,31.28
2022-09-09T16:13:36.614Z,31.50
2022-09-09T16:16:43.301Z,31.71
2022-09-09T16:19:48.788Z,31.89
2022-09-09T16:22:53.832Z,32.09
2022-09-09T16:26:05.551Z,32.17
2022-09-09T16:29:07.869Z,32.27
2022-09-09T16:32:14.089Z,32.32
2022-09-09T16:35:20.474Z,32.79
2022-09-09T16:38:25.761Z,32.93
2022-09-09T16:41:31.520Z,33.19
2022-09-09T16:44:37.929Z,33.44
2022-09-09T16:47:44.423Z,33.30
2022-09-09T16:50:49.799Z,33.33
2022-09-09T16:53:55.404Z,33.83
2022-09-09T16:57:03.817Z,33.79
2022-09-09T17:00:08.899Z,34.00
2022-09-09T17:03:13.961Z,33.94
2022-09-09T17:06:24.975Z,33.86
2022-09-09T17:09:31.761Z,33.89
2022-09-09T17:12:42.006Z,33.95
2022-09-09T17:15:45.022Z,34.10
2022-09-09T17:18:51.539Z,34.09
2022-09-09T17:22:16.292Z,34.19
2022-09-09T17:25:05.475Z,34.03
2022-09-09T17:28:12.522Z,33.88
2022-09-09T17:31:19.594Z,33.84
2022-09-09T17:34:25.769Z,33.88
2022-09-09T17:37:31.078Z,33.91
2022-09-09T17:40:36.588Z,33.96
2022-09-09T17:43:35.194Z,34.10
2022-09-09T17:46:45.077Z,34.28
2022-09-09T17:49:50.144Z,34.18
2022-09-09T17:52:56.811Z,34.18
2022-09-09T17:56:03.874Z,34.46
2022-09-09T17:59:10.830Z,34.61
2022-09-09T18:02:17.218Z,34.34
2022-09-09T18:05:23.688Z,34.05
2022-09-09T18:08:33.504Z,34.22
2022-09-09T18:11:40.069Z,34.30
2022-09-09T18:14:46.826Z,34.18
2022-09-09T18:17:52.061Z,33.82
2022-09-09T18:21:00.433Z,33.85
2022-09-09T18:24:05.508Z,33.85
2022-09-09T18:27:12.050Z,33.69
2022-09-09T18:30:18.317Z,33.54
2022-09-09T18:33:17.152Z,33.46
2022-09-09T18:36:25.496Z,33.12
2022-09-09T18:39:31.680Z,33.04
2022-09-09T18:42:37.294Z,33.04
2022-09-09T18:45:43.153Z,32.90
2022-09-09T18:48:50.817Z,32.80
2022-09-09T18:51:59.417Z,32.78
2022-09-09T18:55:04.922Z,32.48
2022-09-09T18:58:12.028Z,32.66
2022-09-09T19:01:18.114Z,32.65
2022-09-09T19:04:26.305Z,32.65
2022-09-09T19:07:32.397Z,32.55
2022-09-09T19:10:40.992Z,32.60
2022-09-09T19:13:47.344Z,32.51
2022-09-09T19:16:54.951Z,32.48
2022-09-09T19:20:02.511Z,32.74
2022-09-09T19:23:07.524Z,32.66
2022-09-09T19:26:15.548Z,32.39
2022-09-09T19:29:23.251Z,32.33
2022-09-09T19:32:52.137Z,32.46
2022-09-09T19:35:35.801Z,32.66
2022-09-09T19:38:42.376Z,32.91
2022-09-09T19:41:48.520Z,33.00
2022-09-09T19:44:53.103Z,33.01
2022-09-09T19:47:58.866Z,33.33
2022-09-09T19:51:04.382Z,33.36
2022-09-09T19:54:05.594Z,33.46
2022-09-09T19:57:04.537Z,33.39
2022-09-09T20:00:10.680Z,33.40
2022-09-09T20:03:19.665Z,33.54
2022-09-09T20:06:24.341Z,33.58
2022-09-09T20:09:34.027Z,33.66
2022-09-09T20:12:39.863Z,33.65
2022-09-09T20:15:45.219Z,33.45
2022-09-09T20:18:54.124Z,33.47
2022-09-09T20:22:01.102Z,33.58
2022-09-09T20:25:08.174Z,33.34
2022-09-09T20:28:13.328Z,33.37
2022-09-09T20:31:29.009Z,33.25
2022-09-09T20:34:36.485Z,33.27
2022-09-09T20:37:41.420Z,33.34
2022-09-09T20:40:49.110Z,33.07
2022-09-09T20:43:56.440Z,32.90
2022-09-09T20:47:05.154Z,33.03
2022-09-09T20:50:09.956Z,32.99
2022-09-09T20:55:49.053Z,32.66
2022-09-09T20:58:54.838Z,32.70
2022-09-09T21:02:01.236Z,32.56
2022-09-09T21:05:07.781Z,32.74
2022-09-09T21:08:16.558Z,32.76
2022-09-09T21:11:24.249Z,32.99
2022-09-09T21:14:29.894Z,33.09
2022-09-09T21:17:36.039Z,32.83
2022-09-09T21:20:42.977Z,33.00
2022-09-09T21:23:48.653Z,33.08
2022-09-09T21:26:49.853Z,32.95
2022-09-09T21:29:56.470Z,32.94
2022-09-09T21:33:02.800Z,32.69
2022-09-09T21:36:07.917Z,32.67
2022-09-09T21:39:13.584Z,32.94
2022-09-09T21:42:21.396Z,33.04
2022-09-09T21:45:26.968Z,32.91
2022-09-09T21:48:34.591Z,33.02
2022-09-09T21:51:40.337Z,33.35
2022-09-09T21:54:48.335Z,33.45
2022-09-09T21:57:54.798Z,33.16
2022-09-09T22:01:01.681Z,33.10
2022-09-09T22:04:06.922Z,33.32
2022-09-09T22:07:13.541Z,33.35
2022-09-09T22:10:20.174Z,33.50
2022-09-09T22:13:26.562Z,33.53
2022-09-09T22:16:34.264Z,33.60
2022-09-09T22:19:41.534Z,33.75
2022-09-09T22:22:46.382Z,33.80
2022-09-09T22:25:53.627Z,33.68
2022-09-09T22:29:00.907Z,33.95
2022-09-09T22:32:05.894Z,34.20
2022-09-09T22:35:10.318Z,34.71
2022-09-09T22:38:15.726Z,34.78
2022-09-09T22:41:14.653Z,34.84
2022-09-09T22:44:00.791Z,35.25
2022-09-09T22:46:53.630Z,35.12
2022-09-09T22:49:52.824Z,35.12
2022-09-09T22:52:59.033Z,35.32
2022-09-09T22:56:14.463Z,35.16
2022-09-09T22:59:20.016Z,35.07
2022-09-09T23:02:27.372Z,35.00
2022-09-09T23:05:36.161Z,35.40
2022-09-09T23:08:48.134Z,35.63
2022-09-09T23:11:55.104Z,36.15
2022-09-09T23:15:04.075Z,36.82
2022-09-09T23:18:03.656Z,37.37
2022-09-09T23:20:56.837Z,38.45
2022-09-09T23:24:02.513Z,38.74
2022-09-09T23:27:07.974Z,39.18
2022-09-09T23:30:14.411Z,39.58
2022-09-09T23:33:19.550Z,39.71
2022-09-09T23:36:27.357Z,40.16
2022-09-09T23:39:32.504Z,40.48
2022-09-09T23:42:40.151Z,40.75
2022-09-09T23:45:45.505Z,41.32
2022-09-09T23:48:51.308Z,41.41
2022-09-09T23:51:57.211Z,41.25
2022-09-09T23:54:57.750Z,40.47
2022-09-09T23:58:03.194Z,41.70
